Time;durP1;ratioP1;P1;durP2;ratioP2;P2;SDS_P1;SDS_P2;PMS_P1;PMS_P2;Temp;Humidity;BMP_temperature;BMP_pressure;BME280_temperature;BME280_humidity;BME280_pressure;Samples;Min_cycle;Max_cycle;Signal;HPM_P1;HPM_P2
2021/12/27 00:02:23;;;;;;;18.07;13.30;;;5.40;99.90;;;6.15;100.00;96806.72;5263870;28;20208;-64
2021/12/27 00:04:57;;;;;;;21.40;12.90;;;5.40;99.90;;;6.15;100.00;96797.44;5263429;28;20781;-64
2021/12/27 00:07:30;;;;;;;16.90;13.60;;;5.40;99.90;;;6.12;100.00;96797.28;5263045;28;20572;-64
2021/12/27 00:10:06;;;;;;;16.13;12.70;;;5.40;99.90;;;6.11;100.00;96795.53;5264849;28;20222;-64
2021/12/27 00:12:39;;;;;;;17.23;12.43;;;5.40;99.90;;;6.11;100.00;96792.13;5263601;28;20564;-64
2021/12/27 00:15:13;;;;;;;18.93;13.27;;;5.40;99.90;;;6.10;100.00;96793.78;5266015;28;20196;-64
2021/12/27 00:17:49;;;;;;;15.07;11.77;;;5.40;99.90;;;6.07;100.00;96793.63;5267153;28;20241;-64
2021/12/27 00:20:22;;;;;;;16.97;12.33;;;5.40;99.90;;;6.07;100.00;96799.56;5265679;28;20210;-64
2021/12/27 00:22:55;;;;;;;22.07;15.13;;;5.40;99.90;;;6.08;100.00;96787.75;5266805;28;20198;-64
2021/12/27 00:25:29;;;;;;;20.40;14.90;;;5.30;99.90;;;6.03;100.00;96786.59;5264848;28;20230;-64
2021/12/27 00:28:02;;;;;;;21.03;12.83;;;5.30;99.90;;;6.04;100.00;96785.84;5265095;28;20708;-64
2021/12/27 00:30:35;;;;;;;18.10;13.17;;;5.30;99.90;;;6.02;100.00;96784.88;5270000;28;20200;-65
2021/12/27 00:33:10;;;;;;;16.47;12.40;;;5.30;99.90;;;6.00;100.00;96781.38;5265477;28;20249;-64
2021/12/27 00:35:43;;;;;;;21.87;13.40;;;5.30;99.90;;;5.98;100.00;96782.94;5266039;28;20233;-64
2021/12/27 00:38:17;;;;;;;14.77;11.67;;;5.30;99.90;;;5.97;100.00;96789.66;5264101;28;20651;-64
2021/12/27 00:40:50;;;;;;;18.87;13.43;;;5.30;99.90;;;5.96;100.00;96780.31;5265686;28;20206;-64
2021/12/27 00:43:23;;;;;;;18.07;13.33;;;5.30;99.90;;;5.95;100.00;96783.66;5268490;28;20200;-64
2021/12/27 00:45:56;;;;;;;16.50;12.73;;;5.30;99.90;;;5.94;100.00;96783.56;5266080;28;20211;-64
2021/12/27 00:48:30;;;;;;;17.70;13.87;;;5.30;99.90;;;5.96;100.00;96784.53;5265419;28;20204;-64
2021/12/27 00:51:03;;;;;;;23.53;17.80;;;5.30;99.90;;;5.98;100.00;96782.94;5264849;28;20207;-64
2021/12/27 00:53:37;;;;;;;21.23;16.17;;;5.30;99.90;;;5.96;100.00;96777.78;5259565;28;20204;-64
2021/12/27 00:56:10;;;;;;;24.43;15.93;;;5.30;99.90;;;5.98;100.00;96775.31;5262877;28;20241;-64
2021/12/27 00:58:43;;;;;;;19.57;13.93;;;5.30;99.90;;;5.98;100.00;96777.84;5266039;28;20580;-64
2021/12/27 01:01:16;;;;;;;18.70;13.57;;;5.30;99.90;;;5.97;100.00;96777.00;5265013;28;20200;-64
2021/12/27 01:03:51;;;;;;;16.33;12.50;;;5.30;99.90;;;5.99;100.00;96777.97;5263735;28;20231;-64
2021/12/27 01:06:24;;;;;;;16.67;12.47;;;5.30;99.90;;;6.00;100.00;96784.78;5266319;28;20237;-64
2021/12/27 01:08:57;;;;;;;14.50;11.37;;;5.40;99.90;;;6.04;100.00;96788.38;5265582;28;20196;-64
2021/12/27 01:11:40;;;;;;;17.43;15.33;;;5.30;99.90;;;6.08;100.00;96792.81;5254988;28;20203;-64
2021/12/27 01:14:16;;;;;;;23.30;18.27;;;5.30;99.90;;;6.07;100.00;96798.69;5261049;28;20195;-64
2021/12/27 01:16:49;;;;;;;23.70;17.00;;;5.30;99.90;;;6.05;100.00;96797.72;5261789;28;20253;-64
2021/12/27 01:19:24;;;;;;;23.57;17.23;;;5.30;99.90;;;6.03;100.00;96796.75;5258234;28;20200;-64
2021/12/27 01:21:57;;;;;;;22.13;17.70;;;5.40;99.90;;;6.06;100.00;96797.78;5260751;28;20195;-64
2021/12/27 01:24:30;;;;;;;20.60;16.93;;;5.30;99.90;;;6.10;100.00;96801.41;5262049;28;20223;-64
2021/12/27 01:27:03;;;;;;;23.87;17.33;;;5.30;99.90;;;6.07;100.00;96796.16;5263607;28;20226;-63
2021/12/27 01:29:36;;;;;;;16.87;14.80;;;5.30;99.90;;;6.05;100.00;96790.13;5264930;28;20204;-64
2021/12/27 01:32:09;;;;;;;19.10;14.83;;;5.30;99.90;;;6.05;100.00;96792.66;5263739;28;20203;-63
2021/12/27 01:34:44;;;;;;;21.70;16.40;;;5.30;99.90;;;6.08;100.00;96792.81;5263075;28;20644;-64
2021/12/27 01:37:18;;;;;;;20.50;15.43;;;5.30;99.90;;;6.10;100.00;96791.25;5260457;28;20613;-64
2021/12/27 01:39:51;;;;;;;23.30;16.87;;;5.30;99.90;;;6.05;100.00;96791.00;5261250;28;20222;-64
2021/12/27 01:42:24;;;;;;;23.43;16.33;;;5.30;99.90;;;6.04;100.00;96796.00;5260324;28;20223;-64
2021/12/27 01:44:58;;;;;;;18.60;14.47;;;5.40;99.90;;;6.05;100.00;96795.19;5260852;28;20221;-64
2021/12/27 01:47:32;;;;;;;23.97;16.17;;;5.40;99.90;;;6.03;100.00;96792.56;5264245;28;20223;-64
2021/12/27 01:50:07;;;;;;;23.40;15.37;;;5.40;99.90;;;6.04;100.00;96794.31;5264449;28;20200;-64
2021/12/27 01:52:40;;;;;;;17.87;13.83;;;5.40;99.90;;;6.06;100.00;96799.47;5264677;28;20204;-64
2021/12/27 01:55:13;;;;;;;22.83;15.10;;;5.40;99.90;;;6.08;100.00;96806.38;5261076;28;20212;-64
2021/12/27 01:57:48;;;;;;;18.43;13.57;;;5.40;99.90;;;6.11;100.00;96802.28;5261637;28;20486;-64
2021/12/27 02:00:21;;;;;;;18.97;14.33;;;5.50;99.90;;;6.14;100.00;96794.84;5264222;28;20800;-64
2021/12/27 02:02:54;;;;;;;18.50;13.07;;;5.50;99.90;;;6.16;100.00;96804.28;5266231;28;20566;-64
2021/12/27 02:05:29;;;;;;;16.87;13.73;;;5.50;99.90;;;6.12;100.00;96797.28;5262264;28;20224;-64
2021/12/27 02:08:02;;;;;;;19.80;14.37;;;5.40;99.90;;;6.13;100.00;96793.09;5260316;28;20222;-64
2021/12/27 02:10:35;;;;;;;19.27;15.00;;;5.40;99.90;;;6.10;100.00;96791.25;5261191;28;20665;-64
2021/12/27 02:13:09;;;;;;;15.13;12.83;;;5.50;99.90;;;6.07;100.00;96789.41;5264336;28;20199;-64
2021/12/27 02:15:42;;;;;;;18.00;12.90;;;5.40;99.90;;;6.08;100.00;96795.38;5260473;28;20202;-64
2021/12/27 02:18:15;;;;;;;18.23;13.37;;;5.40;99.90;;;6.05;100.00;96780.84;5263275;28;20200;-63
2021/12/27 02:20:50;;;;;;;17.67;12.90;;;5.40;99.90;;;6.03;100.00;96779.00;5260689;28;20204;-64
2021/12/27 02:23:24;;;;;;;13.97;11.30;;;5.40;99.90;;;6.03;100.00;96781.53;5261847;28;20214;-64
2021/12/27 02:25:57;;;;;;;15.43;11.43;;;5.30;99.90;;;5.94;100.00;96776.81;5254541;28;20713;-64
2021/12/27 02:28:30;;;;;;;23.57;14.67;;;5.20;99.90;;;5.91;100.00;96778.28;5258530;28;20207;-64
2021/12/27 02:31:04;;;;;;;19.07;14.47;;;5.20;99.90;;;5.87;100.00;96780.63;5261341;28;20196;-64
2021/12/27 02:33:38;;;;;;;21.20;14.23;;;5.20;99.90;;;5.82;100.00;96778.63;5261651;28;20202;-64
2021/12/27 02:36:14;;;;;;;17.70;13.50;;;5.10;99.90;;;5.79;100.00;96783.53;5258610;28;20226;-64
2021/12/27 02:38:47;;;;;;;19.17;14.07;;;5.10;99.90;;;5.82;100.00;96773.56;5263232;28;20290;-64
2021/12/27 02:41:20;;;;;;;19.70;13.07;;;5.20;99.90;;;5.82;100.00;96779.50;5262224;28;20200;-63
2021/12/27 02:43:53;;;;;;;18.97;14.20;;;5.20;99.90;;;5.84;100.00;96770.31;5264250;28;20570;-64
2021/12/27 02:46:26;;;;;;;21.20;12.53;;;5.30;99.90;;;5.87;100.00;96770.50;5263083;28;20220;-64
2021/12/27 02:48:59;;;;;;;18.53;12.80;;;5.30;99.90;;;5.92;100.00;96769.88;5265780;28;20223;-64
2021/12/27 02:51:34;;;;;;;20.23;13.63;;;5.30;99.90;;;5.95;100.00;96782.75;5267123;28;20200;-64
2021/12/27 02:54:07;;;;;;;27.57;15.50;;;5.30;99.90;;;5.95;100.00;96773.50;5264789;28;20204;-64
2021/12/27 02:56:40;;;;;;;24.07;14.77;;;5.40;99.90;;;5.99;100.00;96770.34;5265722;28;20219;-63
2021/12/27 02:59:13;;;;;;;30.70;16.47;;;5.40;99.90;;;5.99;100.00;96772.03;5268789;28;20206;-64
2021/12/27 03:01:46;;;;;;;19.47;13.67;;;5.40;99.90;;;6.03;100.00;96761.25;5263121;28;20200;-64
2021/12/27 03:04:19;;;;;;;25.30;14.47;;;5.40;99.90;;;6.03;100.00;96766.31;5264714;28;20192;-64
2021/12/27 03:06:54;;;;;;;23.97;15.00;;;5.40;99.90;;;6.07;100.00;96765.72;5266117;28;20216;-64
2021/12/27 03:09:28;;;;;;;19.57;14.00;;;5.40;99.90;;;6.01;100.00;96767.88;5264068;28;20646;-64
2021/12/27 03:12:01;;;;;;;19.53;13.17;;;5.40;99.90;;;6.04;100.00;96760.47;5266956;28;20572;-64
2021/12/27 03:14:34;;;;;;;20.40;13.50;;;5.40;99.90;;;6.05;100.00;96762.22;5266393;28;20207;-64
2021/12/27 03:17:07;;;;;;;24.77;13.60;;;5.40;99.90;;;6.03;100.00;96768.84;5267623;28;20366;-63
2021/12/27 03:19:40;;;;;;;19.63;13.07;;;5.40;99.90;;;6.03;100.00;96759.56;5267244;28;20200;-64
2021/12/27 03:22:15;;;;;;;17.10;13.03;;;5.40;99.90;;;6.06;100.00;96763.94;5268402;28;20298;-64
2021/12/27 03:24:48;;;;;;;20.73;13.47;;;5.30;99.90;;;6.08;100.00;96749.69;5263674;28;20573;-64
2021/12/27 03:27:21;;;;;;;21.97;13.47;;;5.30;99.90;;;6.07;100.00;96755.56;5264436;28;20650;-64
2021/12/27 03:29:54;;;;;;;14.07;11.23;;;5.20;99.90;;;6.00;100.00;96761.06;5265720;28;20204;-64
2021/12/27 03:32:27;;;;;;;18.97;11.53;;;5.30;99.90;;;5.96;100.00;96759.16;5265811;28;20204;-64
2021/12/27 03:35:08;;;;;;;14.67;10.43;;;5.20;99.90;;;5.92;100.00;96764.81;5264538;28;20196;-63
2021/12/27 03:37:46;;;;;;;14.10;10.17;;;5.20;99.90;;;5.90;100.00;96754.59;5267340;28;20216;-64
2021/12/27 03:40:21;;;;;;;14.07;10.33;;;5.20;99.90;;;5.86;100.00;96753.50;5264017;28;20200;-64
2021/12/27 03:42:55;;;;;;;20.93;12.23;;;5.20;99.90;;;5.85;100.00;96748.38;5263961;28;20554;-64
2021/12/27 03:45:31;;;;;;;21.10;12.30;;;5.20;99.90;;;5.81;100.00;96754.94;5265615;28;20608;-64
2021/12/27 03:48:07;;;;;;;15.30;11.43;;;5.20;99.90;;;5.83;100.00;96752.47;5266268;28;20219;-64
2021/12/27 03:50:40;;;;;;;20.63;12.97;;;5.20;99.90;;;5.90;100.00;96748.66;5266461;28;20202;-63
2021/12/27 03:53:15;;;;;;;22.03;14.77;;;5.20;99.90;;;5.91;100.00;96741.13;5266175;28;20199;-64
2021/12/27 03:55:48;;;;;;;21.90;14.57;;;5.30;99.90;;;5.87;100.00;96745.16;5262687;28;20204;-64
2021/12/27 03:58:28;;;;;;;25.70;15.67;;;5.30;99.90;;;5.95;100.00;96739.66;5266950;28;20196;-64
2021/12/27 04:01:15;;;;;;;24.73;14.77;;;5.30;99.90;;;5.99;100.00;96741.59;5265070;28;20203;-64
2021/12/27 04:03:52;;;;;;;21.80;13.93;;;5.30;99.90;;;5.92;100.00;96742.84;5266086;28;20196;-64
2021/12/27 04:06:28;;;;;;;25.33;14.23;;;5.30;99.90;;;5.93;100.00;96739.56;5260899;28;20229;-63
2021/12/27 04:09:03;;;;;;;20.27;12.97;;;5.30;99.90;;;5.94;100.00;96751.47;5266595;28;20195;-63
2021/12/27 04:11:36;;;;;;;23.17;13.43;;;5.30;99.90;;;5.94;100.00;96753.13;5265586;28;20281;-64
2021/12/27 04:14:09;;;;;;;23.23;13.47;;;5.30;99.90;;;5.95;100.00;96748.16;5264567;28;20317;-63
2021/12/27 04:16:42;;;;;;;17.67;12.20;;;5.30;99.90;;;5.94;100.00;96741.31;5270431;28;20558;-64
2021/12/27 04:19:15;;;;;;;20.87;13.17;;;5.30;99.90;;;5.95;100.00;96744.72;5269441;28;20214;-63
2021/12/27 04:21:49;;;;;;;19.73;13.83;;;5.30;99.90;;;5.93;100.00;96744.66;5265379;28;20202;-63
2021/12/27 04:24:23;;;;;;;19.33;12.80;;;5.20;99.90;;;5.90;100.00;96738.50;5260310;28;20210;-64
2021/12/27 04:26:56;;;;;;;19.47;12.87;;;5.20;99.90;;;5.96;100.00;96743.94;5266409;28;20229;-64
2021/12/27 04:29:30;;;;;;;21.13;13.63;;;5.30;99.90;;;5.92;100.00;96741.97;5267231;28;20196;-64
2021/12/27 04:32:03;;;;;;;18.07;13.27;;;5.20;99.90;;;5.92;100.00;96747.06;5265072;28;20204;-64
2021/12/27 04:34:36;;;;;;;24.50;13.37;;;5.20;99.90;;;5.92;100.00;96741.97;5266217;28;20210;-64
2021/12/27 04:37:10;;;;;;;20.27;13.47;;;5.30;99.90;;;5.93;100.00;96753.88;5265205;28;20247;-64
2021/12/27 04:39:44;;;;;;;27.47;15.10;;;5.30;99.90;;;5.97;100.00;96740.63;5266649;28;20207;-64
2021/12/27 04:42:18;;;;;;;25.30;15.80;;;5.30;99.90;;;5.97;100.00;96730.47;5264332;28;20226;-64
2021/12/27 04:44:51;;;;;;;19.70;14.17;;;5.30;99.90;;;5.97;100.00;96731.34;5266375;28;20196;-64
2021/12/27 04:47:24;;;;;;;23.40;15.27;;;5.20;99.90;;;5.82;100.00;96717.78;5263615;28;20228;-64
2021/12/27 04:49:57;;;;;;;19.70;13.53;;;5.20;99.90;;;5.83;100.00;96722.91;5263766;28;20203;-64
2021/12/27 04:52:31;;;;;;;17.20;12.63;;;5.20;99.90;;;5.79;100.00;96720.16;5261774;28;20291;-64
2021/12/27 04:55:06;;;;;;;18.60;13.50;;;5.20;99.90;;;5.76;100.00;96733.50;5264558;28;20691;-64
2021/12/27 04:57:39;;;;;;;22.37;13.43;;;5.10;99.90;;;5.70;100.00;96738.25;5266598;28;20223;-64
2021/12/27 05:00:14;;;;;;;24.53;14.43;;;5.10;99.90;;;5.73;100.00;96738.41;5265441;28;20206;-64
2021/12/27 05:02:47;;;;;;;17.80;13.53;;;5.10;99.90;;;5.73;100.00;96740.94;5261624;28;20210;-64
2021/12/27 05:05:20;;;;;;;20.37;13.83;;;5.10;99.90;;;5.74;100.00;96727.47;5261293;28;20196;-64
2021/12/27 05:07:53;;;;;;;22.57;13.80;;;5.10;99.90;;;5.77;100.00;96730.19;5264073;28;20596;-64
2021/12/27 05:10:29;;;;;;;21.13;14.30;;;5.10;99.90;;;5.74;100.00;96729.13;5264809;28;20214;-63
2021/12/27 05:13:02;;;;;;;22.20;13.73;;;5.10;99.90;;;5.73;100.00;96723.19;5259909;28;20195;-64
2021/12/27 05:15:35;;;;;;;26.70;15.00;;;5.10;99.90;;;5.75;100.00;96723.28;5263388;28;20200;-64
2021/12/27 05:18:09;;;;;;;24.97;13.90;;;5.10;99.90;;;5.75;100.00;96714.03;5262067;28;20306;-64
2021/12/27 05:20:42;;;;;;;23.27;12.90;;;5.10;99.90;;;5.71;100.00;96714.63;5261788;28;20199;-64
2021/12/27 05:23:15;;;;;;;22.30;12.97;;;5.10;99.90;;;5.73;100.00;96709.66;5265510;28;20298;-64
2021/12/27 05:25:50;;;;;;;18.17;12.63;;;5.10;99.90;;;5.71;100.00;96716.28;5269792;28;20199;-64
2021/12/27 05:28:23;;;;;;;26.30;14.93;;;5.10;99.90;;;5.69;100.00;96723.78;5261912;28;20551;-64
2021/12/27 05:30:56;;;;;;;20.63;13.47;;;5.10;99.90;;;5.73;100.00;96724.88;5266560;28;20192;-64
2021/12/27 05:33:29;;;;;;;20.83;13.13;;;5.10;99.90;;;5.65;100.00;96717.69;5264322;28;20220;-64
2021/12/27 05:36:02;;;;;;;18.23;12.67;;;5.00;99.90;;;5.68;100.00;96713.59;5263111;28;20243;-64
2021/12/27 05:38:35;;;;;;;19.53;13.67;;;5.00;99.90;;;5.71;100.00;96711.22;5263466;28;20201;-64
2021/12/27 05:41:09;;;;;;;26.43;13.50;;;5.10;99.90;;;5.72;100.00;96696.09;5265021;28;20211;-64
2021/12/27 05:43:43;;;;;;;20.57;13.23;;;5.10;99.90;;;5.75;100.00;96700.47;5264348;28;20643;-64
2021/12/27 05:46:16;;;;;;;21.67;13.97;;;5.10;99.90;;;5.76;100.00;96698.03;5261839;28;20691;-64
2021/12/27 05:48:49;;;;;;;21.40;14.90;;;5.10;99.90;;;5.70;100.00;96695.16;5263598;28;20206;-64
2021/12/27 05:51:22;;;;;;;21.77;14.30;;;5.10;99.90;;;5.68;100.00;96694.19;5262113;28;20219;-64
2021/12/27 05:53:55;;;;;;;19.37;14.57;;;5.00;99.90;;;5.71;100.00;96696.88;5260884;28;20222;-64
2021/12/27 05:56:29;;;;;;;22.37;13.63;;;5.10;99.90;;;5.72;100.00;96696.09;5261715;28;20608;-64
2021/12/27 05:59:03;;;;;;;18.43;13.00;;;5.10;99.90;;;5.76;100.00;96699.69;5259297;28;20202;-64
2021/12/27 06:01:36;;;;;;;19.27;14.07;;;5.10;99.90;;;5.79;100.00;96705.78;5261558;28;20192;-64
2021/12/27 06:04:09;;;;;;;19.07;13.10;;;5.10;99.90;;;5.81;100.00;96699.16;5263199;28;20196;-64
2021/12/27 06:06:42;;;;;;;21.70;14.37;;;5.20;99.90;;;5.83;100.00;96702.63;5264288;28;20231;-64
2021/12/27 06:09:15;;;;;;;21.27;13.87;;;5.20;99.90;;;5.80;100.00;96699.06;5266907;28;20673;-64
2021/12/27 06:11:50;;;;;;;20.07;13.70;;;5.10;99.90;;;5.86;100.00;96702.81;5262181;28;20202;-64
2021/12/27 06:14:23;;;;;;;20.60;14.17;;;5.00;99.90;;;5.80;100.00;96697.41;5262572;28;20211;-64
2021/12/27 06:16:56;;;;;;;18.10;14.40;;;5.00;99.90;;;5.75;100.00;96701.34;5264040;28;20717;-64
2021/12/27 06:19:29;;;;;;;19.80;12.97;;;5.00;99.90;;;5.74;100.00;96691.97;5264398;28;20210;-64
2021/12/27 06:22:04;;;;;;;21.33;15.50;;;5.00;99.90;;;5.68;100.00;96684.03;5260616;28;20203;-64
2021/12/27 06:24:37;;;;;;;20.03;14.37;;;5.00;99.90;;;5.65;100.00;96691.47;5261514;28;20206;-64
2021/12/27 06:27:11;;;;;;;18.20;13.50;;;5.00;99.90;;;5.65;100.00;96696.53;5263823;28;20220;-64
2021/12/27 06:29:44;;;;;;;19.43;13.13;;;5.00;99.90;;;5.68;100.00;96690.78;5262077;28;20210;-63
2021/12/27 06:32:17;;;;;;;19.30;12.83;;;5.00;99.90;;;5.69;100.00;96698.44;5261504;28;20444;-64
2021/12/27 06:34:50;;;;;;;15.13;12.57;;;5.00;99.90;;;5.68;100.00;96691.63;5263267;28;20204;-64
2021/12/27 06:37:23;;;;;;;18.63;12.10;;;5.10;99.90;;;5.72;100.00;96695.22;5266328;28;20792;-64
2021/12/27 06:39:56;;;;;;;15.33;11.97;;;5.10;99.90;;;5.76;100.00;96690.41;5266913;28;20200;-63
2021/12/27 06:42:31;;;;;;;19.00;13.27;;;5.10;99.90;;;5.75;100.00;96678.53;5260678;28;20206;-64
2021/12/27 06:45:05;;;;;;;16.63;13.03;;;5.10;99.90;;;5.77;100.00;96678.59;5265596;28;20642;-64
2021/12/27 06:47:38;;;;;;;17.00;12.07;;;5.10;99.90;;;5.72;100.00;96673.25;5263671;28;20224;-64
2021/12/27 06:50:12;;;;;;;14.77;11.47;;;5.00;99.90;;;5.76;100.00;96670.13;5259654;28;20210;-64
2021/12/27 06:52:46;;;;;;;16.73;11.87;;;5.00;99.90;;;5.77;100.00;96678.59;5263913;28;20202;-64
2021/12/27 06:55:19;;;;;;;15.70;11.77;;;5.00;99.90;;;5.70;100.00;96672.34;5260804;28;20196;-64
2021/12/27 06:57:53;;;;;;;17.40;14.00;;;4.90;99.90;;;5.64;100.00;96667.78;5261442;28;20228;-64
2021/12/27 07:00:27;;;;;;;19.67;15.40;;;4.90;99.90;;;5.63;100.00;96668.56;5258575;28;20575;-64
2021/12/27 07:03:00;;;;;;;20.33;14.57;;;4.90;99.90;;;5.64;100.00;96661.84;5255614;28;20200;-64
2021/12/27 07:05:33;;;;;;;22.87;15.43;;;4.90;99.90;;;5.63;100.00;96660.94;5263639;28;20202;-64
2021/12/27 07:08:06;;;;;;;16.97;13.90;;;4.90;99.90;;;5.64;100.00;96659.31;5262834;28;20304;-64
2021/12/27 07:10:40;;;;;;;19.23;14.63;;;5.00;99.90;;;5.58;100.00;96658.94;5262549;28;20204;-64
2021/12/27 07:13:14;;;;;;;19.20;15.40;;;4.90;99.90;;;5.60;100.00;96658.25;5261576;28;20227;-64
2021/12/27 07:15:47;;;;;;;19.20;14.20;;;4.90;99.90;;;5.62;100.00;96656.69;5259514;28;20564;-64
2021/12/27 07:18:23;;;;;;;21.93;15.03;;;4.90;99.90;;;5.53;100.00;96661.25;5262682;28;20200;-64
2021/12/27 07:20:56;;;;;;;20.07;14.40;;;4.80;99.90;;;5.55;100.00;96658.78;5261901;28;20712;-64
2021/12/27 07:23:29;;;;;;;15.53;13.20;;;4.90;99.90;;;5.60;100.00;96664.97;5260181;28;20195;-63
2021/12/27 07:26:02;;;;;;;19.00;13.80;;;4.90;99.90;;;5.61;100.00;96664.22;5262480;28;20733;-64
2021/12/27 07:28:36;;;;;;;16.40;13.80;;;4.90;99.90;;;5.58;100.00;96664.00;5263440;28;20219;-64
2021/12/27 07:31:10;;;;;;;24.53;17.27;;;4.90;99.90;;;5.56;100.00;96669.00;5262441;28;20195;-64
2021/12/27 07:33:43;;;;;;;23.30;18.07;;;4.90;99.90;;;5.65;100.00;96663.59;5262212;28;20196;-64
2021/12/27 07:36:16;;;;;;;25.37;17.50;;;4.90;99.90;;;5.61;100.00;96666.75;5266027;28;20220;-63
2021/12/27 07:38:49;;;;;;;20.27;15.90;;;4.90;99.90;;;5.62;100.00;96676.09;5267659;28;20202;-64
2021/12/27 07:41:23;;;;;;;19.10;15.20;;;5.00;99.90;;;5.65;100.00;96682.19;5264972;28;20196;-64
2021/12/27 07:43:57;;;;;;;19.00;15.57;;;5.00;99.90;;;5.71;100.00;96686.75;5266050;28;20198;-64
2021/12/27 07:46:31;;;;;;;18.87;14.07;;;5.10;99.90;;;5.71;100.00;96679.13;5265971;28;20223;-64
2021/12/27 07:49:04;;;;;;;16.67;14.17;;;5.00;99.90;;;5.76;100.00;96670.13;5264010;28;20231;-64
2021/12/27 07:51:37;;;;;;;17.10;14.90;;;5.10;99.90;;;5.79;100.00;96677.91;5263750;28;20196;-64
2021/12/27 07:54:11;;;;;;;22.13;15.27;;;5.10;99.90;;;5.82;100.00;96675.53;5262692;28;20674;-64
2021/12/27 07:56:45;;;;;;;22.90;14.30;;;5.10;99.90;;;5.84;100.00;96668.91;5264505;28;20337;-64
2021/12/27 07:59:19;;;;;;;21.73;14.10;;;5.20;99.90;;;5.87;100.00;96676.69;5267080;28;20206;-64
2021/12/27 08:01:52;;;;;;;20.13;14.43;;;5.20;99.90;;;5.88;100.00;96669.94;5262607;28;20292;-64
2021/12/27 08:04:25;;;;;;;20.73;15.10;;;5.20;99.90;;;6.00;100.00;96667.25;5261443;28;20818;-64
2021/12/27 08:06:58;;;;;;;20.60;15.43;;;5.30;99.90;;;6.19;100.00;96667.47;5259780;28;20230;-64
2021/12/27 08:09:32;;;;;;;18.87;15.67;;;5.50;99.90;;;6.33;100.00;96670.75;5257052;28;20656;-64
2021/12/27 08:12:09;;;;;;;22.57;15.97;;;5.60;99.90;;;6.50;100.00;96674.19;5263144;28;20648;-65
2021/12/27 08:14:44;;;;;;;21.43;16.30;;;5.80;99.90;;;6.57;100.00;96676.25;5263482;28;20202;-64
2021/12/27 08:17:17;;;;;;;19.17;15.23;;;5.90;99.90;;;6.71;100.00;96674.44;5263007;28;20215;-65
2021/12/27 08:19:50;;;;;;;17.67;14.80;;;6.00;99.90;;;6.77;100.00;96670.56;5263758;28;20228;-65
2021/12/27 08:22:23;;;;;;;18.80;15.37;;;6.00;99.90;;;6.72;100.00;96666.91;5261752;28;20227;-65
2021/12/27 08:24:56;;;;;;;17.10;14.47;;;6.00;99.90;;;6.69;100.00;96663.31;5263006;28;20203;-65
2021/12/27 08:27:30;;;;;;;16.97;14.03;;;5.90;99.90;;;6.78;100.00;96666.34;5263867;28;20220;-64
2021/12/27 08:30:07;;;;;;;16.90;14.67;;;6.00;99.90;;;6.74;100.00;96660.22;5262299;28;20207;-65
2021/12/27 08:32:45;;;;;;;16.67;14.53;;;6.00;99.90;;;6.80;100.00;96664.75;5263442;28;20200;-65
2021/12/27 08:35:18;;;;;;;16.17;14.07;;;6.00;99.90;;;6.79;100.00;96654.53;5263835;28;20199;-64
2021/12/27 08:37:51;;;;;;;14.23;12.73;;;6.10;99.90;;;6.89;100.00;96644.03;5263225;28;20216;-64
2021/12/27 08:40:24;;;;;;;16.37;12.60;;;6.20;99.90;;;7.12;100.00;96648.63;5263850;28;20199;-64
2021/12/27 08:42:57;;;;;;;15.03;13.00;;;6.40;99.90;;;7.23;100.00;96639.88;5260328;28;20222;-65
2021/12/27 08:45:31;;;;;;;13.57;12.10;;;6.50;99.90;;;7.28;100.00;96639.25;5264935;28;20207;-65
2021/12/27 08:48:05;;;;;;;12.90;11.30;;;6.50;99.90;;;7.29;100.00;96636.75;5263008;28;20226;-65
2021/12/27 08:50:39;;;;;;;12.40;10.57;;;6.50;99.90;;;7.35;100.00;96637.06;5264190;28;20214;-64
2021/12/27 08:53:17;;;;;;;13.20;11.80;;;6.50;99.90;;;7.42;100.00;96650.97;5264236;28;20211;-65
2021/12/27 08:55:50;;;;;;;12.30;11.00;;;6.60;99.90;;;7.44;100.00;96651.91;5262149;28;20203;-64
2021/12/27 08:58:23;;;;;;;15.43;13.77;;;6.60;99.90;;;7.51;100.00;96651.41;5262200;28;20667;-65
2021/12/27 09:00:58;;;;;;;18.20;15.47;;;6.60;99.90;;;7.56;100.00;96646.56;5264041;28;20192;-65
2021/12/27 09:03:31;;;;;;;21.47;18.00;;;6.70;99.90;;;7.74;100.00;96654.19;5263817;28;20238;-64
2021/12/27 09:06:05;;;;;;;19.67;17.33;;;6.70;99.90;;;7.76;100.00;96652.63;5262636;28;20211;-65
2021/12/27 09:08:38;;;;;;;21.90;18.97;;;6.80;99.90;;;7.85;100.00;96665.78;5258693;28;20208;-64
2021/12/27 09:11:11;;;;;;;20.33;18.13;;;6.80;99.90;;;7.88;100.00;96668.44;5259884;28;20214;-65
2021/12/27 09:13:44;;;;;;;19.37;16.77;;;6.90;99.90;;;7.92;100.00;96654.19;5262366;28;20305;-64
2021/12/27 09:16:39;;;;;;;17.13;15.30;;;7.10;99.90;;;7.95;100.00;96661.97;5261141;28;20226;-65
2021/12/27 09:19:14;;;;;;;17.27;15.37;;;7.00;99.90;;;7.88;100.00;96661.69;5262610;28;20208;-65
2021/12/27 09:21:47;;;;;;;16.93;15.17;;;7.00;99.90;;;7.91;100.00;96663.50;5259676;28;20290;-65
2021/12/27 09:24:20;;;;;;;17.03;15.23;;;6.90;99.90;;;8.01;100.00;96652.97;5263354;28;20199;-64
2021/12/27 09:26:53;;;;;;;18.80;16.23;;;7.00;99.90;;;8.15;100.00;96661.25;5262454;28;20218;-65
2021/12/27 09:29:27;;;;;;;23.90;20.70;;;7.30;99.90;;;8.25;100.00;96665.09;5262020;28;20239;-64
2021/12/27 09:32:01;;;;;;;21.07;18.77;;;7.40;99.90;;;8.40;100.00;96658.19;5262013;28;20697;-65
2021/12/27 09:34:34;;;;;;;19.20;16.88;;;7.60;99.90;;;8.57;100.00;96659.81;5262618;28;20199;-65
2021/12/27 09:37:08;;;;;;;19.03;17.03;;;7.60;99.90;;;8.40;100.00;96655.66;5262712;28;20223;-65
2021/12/27 09:39:41;;;;;;;18.03;15.73;;;7.50;99.90;;;8.33;100.00;96653.59;5262761;28;20192;-65
2021/12/27 09:42:14;;;;;;;16.53;14.53;;;7.50;99.90;;;8.43;100.00;96650.69;5263734;28;20202;-65
2021/12/27 09:44:47;;;;;;;18.90;16.50;;;7.70;99.90;;;8.60;100.00;96640.41;5260427;28;20281;-65
2021/12/27 09:47:22;;;;;;;20.47;17.10;;;7.90;99.90;;;8.72;100.00;96631.63;5260535;28;20220;-65
2021/12/27 09:50:19;;;;;;;18.38;16.35;;;7.90;99.90;;;8.85;100.00;96627.94;5262195;28;20219;-65
2021/12/27 09:52:52;;;;;;;15.23;13.53;;;8.00;99.90;;;8.80;100.00;96635.38;5261028;28;20196;-65
2021/12/27 09:55:27;;;;;;;16.33;14.60;;;8.00;99.90;;;8.89;100.00;96631.50;5263196;28;20210;-66
2021/12/27 09:58:00;;;;;;;17.77;15.90;;;8.00;99.90;;;9.02;100.00;96646.53;5259879;28;20786;-66
2021/12/27 10:00:37;;;;;;;15.50;13.93;;;7.90;99.90;;;8.79;100.00;96642.97;5262696;28;20204;-65
2021/12/27 10:03:12;;;;;;;15.90;14.32;;;7.90;99.90;;;8.86;100.00;96637.31;5262554;28;20667;-65
2021/12/27 10:05:47;;;;;;;14.95;13.05;;;7.90;99.90;;;8.82;100.00;96639.69;5261465;28;20557;-66
2021/12/27 10:08:20;;;;;;;14.40;12.30;;;7.90;99.90;;;8.97;100.00;96632.69;5262928;28;20532;-65
2021/12/27 10:10:59;;;;;;;15.00;13.50;;;8.10;99.90;;;9.11;100.00;96615.47;5262646;28;20555;-65
2021/12/27 10:13:32;;;;;;;13.40;12.00;;;8.30;99.90;;;9.22;100.00;96615.09;5259284;28;20206;-65
2021/12/27 10:16:15;;;;;;;11.45;10.35;;;8.40;99.90;;;9.13;100.00;96603.63;5259550;28;20219;-66
2021/12/27 10:18:55;;;;;;;10.90;9.80;;;8.30;99.90;;;9.23;100.00;96600.66;5258528;28;20188;-65
2021/12/27 10:21:29;;;;;;;11.57;9.43;;;8.30;99.90;;;9.28;100.00;96601.75;5260073;28;20222;-65
2021/12/27 10:24:08;;;;;;;10.88;9.75;;;8.30;99.90;;;9.40;100.00;96597.13;5259941;28;20266;-65
2021/12/27 10:26:43;;;;;;;10.60;9.50;;;8.50;99.90;;;9.47;100.00;96594.03;5260904;28;20222;-65
2021/12/27 10:29:18;;;;;;;11.35;10.07;;;8.50;99.90;;;9.56;100.00;96592.69;5260765;28;20309;-66
2021/12/27 10:31:57;;;;;;;10.05;9.15;;;8.50;99.90;;;9.44;100.00;96591.38;5260163;28;20196;-66
2021/12/27 10:34:35;;;;;;;10.27;9.27;;;8.40;99.90;;;9.54;100.00;96584.06;5258189;28;20210;-65
2021/12/27 10:37:17;;;;;;;11.43;10.18;;;8.40;99.90;;;9.42;100.00;96580.22;5258643;28;20222;-65
2021/12/27 10:39:56;;;;;;;10.75;9.75;;;8.40;99.90;;;9.23;100.00;96576.03;5259295;28;20298;-65
2021/12/27 10:42:33;;;;;;;10.43;9.43;;;8.30;99.90;;;9.23;100.00;96575.16;5260333;28;20234;-65